Impacts TAF Board
For situational awareness. Not to be used for flight planning purposes.
IDs:

KSDL - Scottsdale Muni, AZ, US

Issued at 1720 UTC 01 Feb 2023
Updated at 2137 UTC 01 Feb 2023
Potential Impact None Slight Moderate High
Time2053Z 01/22Z 01/23Z 02/00Z 02/01Z 02/02Z 02/03Z 02/04Z 02/05Z 02/06Z 02/07Z 02/08Z 02/09Z 02/10Z>>
Type OBS PRVL PRVL PRVL PRVL PRVL PRVL PRVL PRVL PRVL PRVL PRVL PRVL PRVL
VIS 10 >6 >6 >6 >6 >6 >6 >6 >6 >6 >6 >6 >6 >6
CIG -- -- -- -- -- -- -- -- -- -- -- -- -- --
Cover CLR SKC SKC SKC SKC SKC SKC SKC SKC SKC SKC SKC SKC SKC
FltCat VFR VFR VFR VFR VFR VFR VFR VFR VFR VFR VFR VFR VFR VFR
WX -- -- -- -- -- -- -- -- -- -- -- -- -- --
WDir VRB 270 270 VRB VRB VRB VRB VRB VRB VRB VRB VRB VRB VRB
WSpd 0 4 4 3 3 3 3 3 3 3 3 3 3 3
WGst -- -- -- -- -- -- -- -- -- -- -- -- -- --
WSHgt -- -- -- -- -- -- -- -- -- -- -- -- -- --
WSDir -- -- -- -- -- -- -- -- -- -- -- -- -- --
WSSpd -- -- -- -- -- -- -- -- -- -- -- -- -- --
R03/21
XWnd VRB 3 3 VRB VRB VRB VRB VRB VRB VRB VRB VRB VRB VRB
HWnd VRB -3 -3 VRB VRB VRB VRB VRB VRB VRB VRB VRB VRB VRB

NOTE: LAMP data beyond the time of the TAF data is denoted as LAMP in Type and colored magenta.

Raw TAF
KSDL 011720Z 0118/0218 27004KT P6SM SKC
  FM020000 VRB03KT P6SM SKC


Raw METAR
KSDL 012053Z 00000KT 10SM CLR 18/M05 A3004 RMK AO2 SLP163 T01831050 57023
KSDL 011953Z 26005KT 10SM CLR 17/M04 A3006 RMK AO2 SLP170 T01721044
KSDL 011853Z 23003KT 10SM CLR 16/M04 A3009 RMK AO2 SLP182 T01611039

METAR Board
Radar Display
Forecast Discussion

For situational awareness. Not to be used for flight planning purposes.